createdAt,value
2022-12-11T00:00:47.814Z,7.07
2022-12-11T00:03:16.581Z,5.40
2022-12-11T00:05:43.934Z,4.72
2022-12-11T00:08:12.339Z,7.93
2022-12-11T00:10:39.175Z,4.03
2022-12-11T00:13:05.801Z,2.80
2022-12-11T00:15:32.412Z,10.13
2022-12-11T00:17:59.005Z,4.10
2022-12-11T00:20:25.479Z,10.38
2022-12-11T00:22:52.064Z,6.30
2022-12-11T00:25:18.689Z,4.70
2022-12-11T00:27:46.904Z,3.25
2022-12-11T00:30:14.260Z,4.28
2022-12-11T00:32:40.943Z,3.42
2022-12-11T00:35:08.072Z,8.85
2022-12-11T00:37:34.977Z,2.87
2022-12-11T00:40:01.655Z,7.95
2022-12-11T00:42:28.197Z,5.13
2022-12-11T00:44:54.781Z,5.85
2022-12-11T00:47:21.402Z,8.52
2022-12-11T00:49:49.976Z,7.70
2022-12-11T00:52:17.196Z,3.17
2022-12-11T00:54:43.824Z,5.72
2022-12-11T00:57:10.316Z,5.03
2022-12-11T00:59:36.834Z,7.50
2022-12-11T01:02:03.511Z,8.03
2022-12-11T01:04:30.075Z,9.20
2022-12-11T01:06:56.634Z,8.38
2022-12-11T01:09:23.252Z,7.53
2022-12-11T01:11:49.822Z,8.85
2022-12-11T01:14:16.310Z,3.60
2022-12-11T01:16:42.931Z,10.48
2022-12-11T01:19:09.406Z,11.63
2022-12-11T01:21:35.991Z,8.52
2022-12-11T01:24:02.691Z,8.95
2022-12-11T01:26:29.336Z,11.37
2022-12-11T01:28:55.807Z,11.50
2022-12-11T01:31:22.405Z,9.93
2022-12-11T01:33:48.973Z,12.48
2022-12-11T01:36:19.229Z,11.75
2022-12-11T01:38:47.486Z,6.50
2022-12-11T01:41:15.889Z,8.77
2022-12-11T01:44:04.946Z,11.00
2022-12-11T01:46:33.495Z,11.10
2022-12-11T01:49:02.235Z,8.10
2022-12-11T01:51:31.547Z,6.80
2022-12-11T01:54:02.020Z,8.25
2022-12-11T01:56:31.006Z,8.45
2022-12-11T01:59:01.862Z,11.73
2022-12-11T02:01:35.853Z,12.68
2022-12-11T02:04:02.936Z,10.90
2022-12-11T02:06:32.245Z,9.40
2022-12-11T02:08:59.522Z,11.30
2022-12-11T02:11:37.149Z,11.18
2022-12-11T02:14:08.361Z,12.15
2022-12-11T02:17:12.099Z,7.53
2022-12-11T02:20:02.786Z,9.23
2022-12-11T02:22:52.235Z,7.97
2022-12-11T02:25:31.991Z,6.93
2022-12-11T02:28:16.936Z,5.75
2022-12-11T02:30:51.384Z,2.77
2022-12-11T02:33:23.533Z,4.68
2022-12-11T02:35:50.752Z,6.20
2022-12-11T02:38:24.945Z,6.18
2022-12-11T02:40:55.573Z,5.40
2022-12-11T02:43:23.427Z,6.37
2022-12-11T02:45:51.442Z,6.55
2022-12-11T02:48:20.983Z,6.05
2022-12-11T02:50:50.322Z,6.68
2022-12-11T02:53:20.815Z,9.85
2022-12-11T02:55:51.251Z,7.73
2022-12-11T02:58:22.558Z,8.65
2022-12-11T03:00:49.302Z,8.45
2022-12-11T03:03:16.329Z,6.90
2022-12-11T03:05:43.091Z,8.95
2022-12-11T03:08:10.288Z,9.13
2022-12-11T03:10:37.975Z,8.60
2022-12-11T03:13:05.094Z,9.75
2022-12-11T03:16:00.377Z,3.60
2022-12-11T03:18:58.916Z,7.72
2022-12-11T03:21:38.429Z,6.17
2022-12-11T03:24:11.709Z,5.82
2022-12-11T03:26:54.495Z,6.75
2022-12-11T03:29:39.258Z,5.78
2022-12-11T03:32:19.598Z,7.35
2022-12-11T03:35:02.875Z,6.97
2022-12-11T03:37:34.704Z,7.03
2022-12-11T03:40:07.321Z,7.68
2022-12-11T03:42:35.136Z,11.07
2022-12-11T03:45:04.580Z,10.25
2022-12-11T03:47:32.405Z,8.73
2022-12-11T03:50:00.042Z,8.85
2022-12-11T03:52:28.937Z,8.50
2022-12-11T03:54:59.560Z,9.00
2022-12-11T03:57:30.997Z,8.63
2022-12-11T03:59:58.426Z,8.13
2022-12-11T04:02:25.056Z,8.00
2022-12-11T04:04:51.704Z,7.10
2022-12-11T04:07:18.536Z,8.40
2022-12-11T04:09:44.979Z,8.38
2022-12-11T04:12:11.775Z,8.40
2022-12-11T04:14:38.279Z,9.27
2022-12-11T04:17:05.151Z,10.68
2022-12-11T04:19:31.812Z,11.15
2022-12-11T04:21:58.334Z,10.95
2022-12-11T04:24:24.887Z,8.63
2022-12-11T04:26:51.510Z,7.50
2022-12-11T04:29:17.985Z,8.88
2022-12-11T04:31:44.469Z,7.05
2022-12-11T04:34:11.108Z,7.95
2022-12-11T04:36:37.983Z,9.00
2022-12-11T04:39:05.783Z,8.88
2022-12-11T04:41:32.394Z,8.90
2022-12-11T04:43:58.943Z,12.02
2022-12-11T04:46:25.629Z,11.32
2022-12-11T04:48:57.407Z,8.60
2022-12-11T04:51:25.054Z,10.45
2022-12-11T04:53:51.622Z,10.65
2022-12-11T04:56:18.192Z,11.00
2022-12-11T04:58:45.614Z,10.75
2022-12-11T05:01:18.559Z,7.40
2022-12-11T05:03:46.226Z,8.88
2022-12-11T05:06:13.202Z,8.07
2022-12-11T05:08:42.302Z,7.72
2022-12-11T05:11:11.770Z,8.90
2022-12-11T05:13:38.657Z,9.70
2022-12-11T05:16:06.607Z,10.20
2022-12-11T05:18:33.480Z,10.13
2022-12-11T05:21:02.897Z,7.43
2022-12-11T05:23:30.224Z,8.65
2022-12-11T05:25:59.977Z,9.23
2022-12-11T05:28:29.180Z,9.02
2022-12-11T05:31:00.207Z,10.45
2022-12-11T05:33:28.553Z,10.90
2022-12-11T05:35:55.449Z,11.45
2022-12-11T05:38:22.112Z,7.60
2022-12-11T05:40:57.756Z,10.68
2022-12-11T05:43:24.847Z,10.20
2022-12-11T05:45:51.397Z,7.88
2022-12-11T05:48:18.025Z,10.93
2022-12-11T05:50:44.610Z,9.67
2022-12-11T05:53:11.308Z,8.55
2022-12-11T05:55:37.858Z,10.77
2022-12-11T05:58:04.379Z,8.90
2022-12-11T06:00:35.877Z,10.15
2022-12-11T06:03:02.925Z,10.03
2022-12-11T06:05:29.532Z,12.35
2022-12-11T06:07:56.015Z,11.45
2022-12-11T06:10:22.767Z,10.95
2022-12-11T06:12:49.371Z,13.05
2022-12-11T06:15:15.855Z,8.73
2022-12-11T06:17:42.489Z,11.43
2022-12-11T06:20:09.191Z,13.43
2022-12-11T06:22:35.694Z,11.05
2022-12-11T06:25:02.247Z,10.95
2022-12-11T06:27:28.716Z,13.20
2022-12-11T06:29:55.238Z,15.95
2022-12-11T06:32:21.958Z,16.10
2022-12-11T06:34:48.462Z,17.90
2022-12-11T06:37:14.991Z,16.65
2022-12-11T06:39:41.621Z,14.83
2022-12-11T06:42:08.086Z,28.38
2022-12-11T06:44:34.545Z,15.63
2022-12-11T06:47:01.103Z,12.80
2022-12-11T06:49:27.704Z,13.15
2022-12-11T06:51:54.322Z,17.57
2022-12-11T06:54:20.903Z,12.63
2022-12-11T06:56:47.400Z,8.85
2022-12-11T06:59:13.916Z,12.00
2022-12-11T07:01:40.492Z,11.35
2022-12-11T07:04:06.991Z,5.47
2022-12-11T07:06:33.509Z,9.60
2022-12-11T07:09:00.590Z,11.73
2022-12-11T07:11:27.814Z,15.93
2022-12-11T07:13:54.419Z,13.45
2022-12-11T07:16:23.142Z,9.67
2022-12-11T07:18:51.368Z,15.48
2022-12-11T07:21:20.303Z,18.55
2022-12-11T07:23:47.818Z,22.70
2022-12-11T07:26:16.921Z,14.40
2022-12-11T07:28:44.156Z,12.50
2022-12-11T07:31:16.648Z,11.52
2022-12-11T07:33:43.616Z,16.05
2022-12-11T07:36:12.395Z,17.48
2022-12-11T07:38:39.399Z,15.43
2022-12-11T07:41:09.492Z,17.73
2022-12-11T07:43:36.672Z,15.30
2022-12-11T07:46:09.489Z,17.42
2022-12-11T07:48:37.171Z,19.63
2022-12-11T07:51:19.257Z,17.63
2022-12-11T07:53:48.137Z,11.83
2022-12-11T07:56:15.467Z,20.83
2022-12-11T07:58:42.418Z,21.23
2022-12-11T08:01:26.892Z,19.73
2022-12-11T08:03:54.702Z,13.82
2022-12-11T08:06:28.923Z,19.33
2022-12-11T08:08:57.630Z,10.98
2022-12-11T08:11:24.888Z,23.10
2022-12-11T08:13:51.722Z,16.80
2022-12-11T08:16:19.002Z,13.85
2022-12-11T08:18:46.925Z,16.60
2022-12-11T08:21:19.545Z,16.15
2022-12-11T08:23:46.457Z,19.63
2022-12-11T08:26:19.502Z,16.20
2022-12-11T08:28:46.283Z,23.08
2022-12-11T08:31:15.041Z,21.90
2022-12-11T08:33:42.341Z,30.83
2022-12-11T08:36:11.734Z,16.58
2022-12-11T08:38:38.396Z,19.50
2022-12-11T08:41:16.457Z,16.67
2022-12-11T08:43:43.747Z,13.07
2022-12-11T08:46:11.939Z,17.65
2022-12-11T08:48:40.292Z,17.35
2022-12-11T08:51:09.014Z,16.92
2022-12-11T08:53:35.567Z,19.58
2022-12-11T08:56:07.995Z,22.23
2022-12-11T08:58:34.506Z,16.38
2022-12-11T09:01:05.504Z,15.20
2022-12-11T09:03:32.813Z,16.70
2022-12-11T09:05:59.325Z,15.27
2022-12-11T09:08:26.401Z,27.63
2022-12-11T09:10:53.083Z,16.42
2022-12-11T09:13:19.630Z,20.63
2022-12-11T09:15:46.167Z,14.27
2022-12-11T09:18:12.931Z,14.52
2022-12-11T09:20:39.478Z,16.83
2022-12-11T09:23:05.993Z,17.48
2022-12-11T09:25:32.540Z,15.93
2022-12-11T09:27:59.063Z,24.42
2022-12-11T09:30:25.599Z,13.73
2022-12-11T09:32:52.154Z,15.63
2022-12-11T09:35:18.618Z,11.82
2022-12-11T09:37:45.091Z,11.38
2022-12-11T09:40:12.423Z,8.10
2022-12-11T09:42:57.359Z,12.43
2022-12-11T09:45:24.101Z,11.17
2022-12-11T09:47:53.440Z,8.60
2022-12-11T09:50:33.883Z,12.90
2022-12-11T09:53:00.348Z,10.95
2022-12-11T09:55:39.639Z,14.05
2022-12-11T09:58:27.859Z,11.43
2022-12-11T10:01:13.066Z,10.75
2022-12-11T10:03:45.476Z,11.45
2022-12-11T10:06:22.326Z,13.85
2022-12-11T10:09:18.473Z,17.13
2022-12-11T10:12:00.370Z,15.87
2022-12-11T10:15:03.887Z,20.05
2022-12-11T10:17:37.143Z,8.95
2022-12-11T10:20:24.127Z,15.80
2022-12-11T10:22:52.731Z,16.70
2022-12-11T10:25:29.057Z,21.53
2022-12-11T10:27:56.167Z,17.70
2022-12-11T10:30:25.404Z,23.98
2022-12-11T10:33:27.318Z,24.40
2022-12-11T10:35:56.196Z,28.23
2022-12-11T10:38:29.119Z,35.43
2022-12-11T10:41:17.877Z,29.65
2022-12-11T10:43:46.897Z,39.83
2022-12-11T10:46:20.224Z,23.17
2022-12-11T10:48:52.031Z,13.95
2022-12-11T10:51:19.512Z,28.47
2022-12-11T10:53:55.140Z,21.38
2022-12-11T10:56:30.513Z,16.55
2022-12-11T10:58:59.137Z,14.20
2022-12-11T11:01:32.549Z,14.50
2022-12-11T11:04:07.080Z,14.30
2022-12-11T11:06:33.932Z,14.18
2022-12-11T11:09:02.044Z,11.35
2022-12-11T11:11:37.877Z,12.40
2022-12-11T11:14:18.479Z,20.42
2022-12-11T11:16:47.877Z,16.70
2022-12-11T11:19:30.559Z,15.52
2022-12-11T11:22:02.144Z,13.65
2022-12-11T11:24:33.060Z,9.82
2022-12-11T11:27:15.212Z,7.43
2022-12-11T11:29:42.237Z,10.27
2022-12-11T11:32:19.769Z,12.98
2022-12-11T11:34:46.395Z,9.90
2022-12-11T11:37:33.319Z,14.73
2022-12-11T11:40:11.529Z,11.57
2022-12-11T11:43:00.898Z,14.37
2022-12-11T11:45:37.195Z,15.27
2022-12-11T11:48:35.740Z,15.00
2022-12-11T11:51:13.037Z,15.00
2022-12-11T11:53:39.679Z,16.48
2022-12-11T11:56:27.853Z,13.23
2022-12-11T11:59:00.002Z,10.85
2022-12-11T12:01:26.697Z,9.05
2022-12-11T12:03:54.211Z,10.77
2022-12-11T12:06:29.965Z,11.07
2022-12-11T12:09:06.644Z,7.43
2022-12-11T12:11:44.578Z,11.20
2022-12-11T12:14:51.169Z,7.68
2022-12-11T12:17:09.644Z,13.02
2022-12-11T12:20:13.147Z,10.73
2022-12-11T12:22:46.532Z,12.83
2022-12-11T12:25:27.032Z,10.00
2022-12-11T12:28:12.271Z,10.10
2022-12-11T12:31:05.245Z,8.75
2022-12-11T12:33:47.115Z,10.70
2022-12-11T12:36:30.197Z,7.20
2022-12-11T12:38:59.643Z,10.05
2022-12-11T12:42:01.351Z,10.52
2022-12-11T12:44:47.179Z,10.50
2022-12-11T12:47:17.471Z,8.57
2022-12-11T12:49:49.379Z,12.23
2022-12-11T12:52:20.887Z,17.70
2022-12-11T12:54:51.007Z,17.10
2022-12-11T12:57:17.920Z,16.95
2022-12-11T12:59:54.566Z,9.57
2022-12-11T13:02:21.156Z,13.47
2022-12-11T13:04:58.325Z,11.23
2022-12-11T13:07:30.625Z,10.00
2022-12-11T13:10:21.830Z,14.65
2022-12-11T13:12:48.714Z,11.93
2022-12-11T13:15:29.692Z,9.20
2022-12-11T13:17:56.958Z,12.10
2022-12-11T13:20:26.333Z,12.63
2022-12-11T13:23:18.785Z,12.35
2022-12-11T13:25:58.217Z,15.45
2022-12-11T13:28:29.361Z,10.93
2022-12-11T13:31:07.838Z,10.90
2022-12-11T13:33:41.390Z,13.95
2022-12-11T13:36:16.668Z,13.25
2022-12-11T13:38:55.570Z,18.27
2022-12-11T13:41:23.142Z,16.20
2022-12-11T13:43:50.623Z,17.38
2022-12-11T13:46:24.825Z,16.58
2022-12-11T13:48:59.816Z,11.85
2022-12-11T13:51:29.088Z,15.70
2022-12-11T13:54:17.530Z,10.80
2022-12-11T13:57:18.283Z,12.35
2022-12-11T13:59:55.936Z,15.65
2022-12-11T14:02:29.379Z,10.52
2022-12-11T14:04:59.202Z,14.80
2022-12-11T14:07:33.452Z,11.87
2022-12-11T14:10:15.298Z,9.55
2022-12-11T14:12:59.419Z,6.93
2022-12-11T14:15:28.085Z,8.57
2022-12-11T14:17:55.936Z,6.80
2022-12-11T14:20:26.210Z,9.60
2022-12-11T14:22:52.703Z,10.68
2022-12-11T14:25:25.575Z,13.85
2022-12-11T14:27:54.931Z,21.42
2022-12-11T14:30:28.141Z,16.52
2022-12-11T14:33:02.627Z,10.57
2022-12-11T14:35:39.337Z,10.70
2022-12-11T14:38:35.792Z,9.50
2022-12-11T14:41:13.237Z,7.35
2022-12-11T14:43:49.762Z,6.53
2022-12-11T14:46:20.293Z,6.33
2022-12-11T14:49:03.726Z,7.03
2022-12-11T14:51:35.779Z,10.65
2022-12-11T14:54:03.052Z,7.60
2022-12-11T14:56:30.781Z,9.90
2022-12-11T14:59:03.811Z,7.50
2022-12-11T15:01:33.663Z,14.10
2022-12-11T15:04:16.206Z,9.35
2022-12-11T15:06:45.418Z,9.48
2022-12-11T15:09:24.973Z,12.85
2022-12-11T15:11:54.065Z,11.10
2022-12-11T15:14:22.604Z,8.77
2022-12-11T15:16:50.519Z,8.95
2022-12-11T15:19:22.099Z,7.25
2022-12-11T15:21:49.154Z,9.18
2022-12-11T15:24:30.626Z,11.40
2022-12-11T15:26:59.374Z,7.18
2022-12-11T15:29:39.941Z,7.20
2022-12-11T15:32:09.488Z,13.25
2022-12-11T15:34:44.189Z,9.27
2022-12-11T15:37:18.903Z,8.90
2022-12-11T15:39:45.511Z,8.88
2022-12-11T15:42:16.163Z,8.10
2022-12-11T15:44:42.775Z,10.98
2022-12-11T15:47:18.579Z,11.18
2022-12-11T15:49:45.051Z,10.30
2022-12-11T15:52:11.644Z,17.42
2022-12-11T15:54:38.326Z,21.83
2022-12-11T15:57:07.640Z,16.33
2022-12-11T15:59:34.292Z,13.32
2022-12-11T16:02:00.971Z,15.93
2022-12-11T16:04:27.494Z,17.05
2022-12-11T16:06:54.074Z,29.90
2022-12-11T16:09:20.724Z,17.52
2022-12-11T16:11:47.325Z,18.60
2022-12-11T16:14:13.925Z,21.20
2022-12-11T16:16:40.521Z,20.92
2022-12-11T16:19:06.979Z,38.58
2022-12-11T16:21:33.523Z,29.95
2022-12-11T16:24:00.125Z,25.98
2022-12-11T16:26:26.815Z,21.50
2022-12-11T16:28:53.301Z,26.35
2022-12-11T16:31:19.996Z,24.98
2022-12-11T16:33:46.522Z,19.38
2022-12-11T16:36:15.634Z,19.48
2022-12-11T16:38:51.459Z,20.80
2022-12-11T16:41:20.061Z,24.23
2022-12-11T16:43:46.670Z,22.17
2022-12-11T16:46:13.254Z,20.63
2022-12-11T16:48:39.829Z,23.88
2022-12-11T16:51:06.314Z,28.87
2022-12-11T16:53:32.887Z,25.55
2022-12-11T16:55:59.440Z,40.28
2022-12-11T16:58:26.031Z,27.50
2022-12-11T17:00:52.601Z,29.30
2022-12-11T17:03:19.164Z,23.50
2022-12-11T17:05:45.684Z,21.25
2022-12-11T17:08:13.799Z,24.00
2022-12-11T17:10:41.744Z,19.50
2022-12-11T17:13:08.243Z,24.25
2022-12-11T17:15:39.877Z,20.83
2022-12-11T17:18:06.522Z,15.73
2022-12-11T17:20:33.286Z,29.33
2022-12-11T17:23:00.859Z,16.92
2022-12-11T17:25:27.320Z,25.13
2022-12-11T17:27:55.284Z,23.00
2022-12-11T17:30:22.731Z,19.48
2022-12-11T17:32:49.326Z,17.73
2022-12-11T17:35:15.870Z,27.10
2022-12-11T17:37:42.358Z,21.92
2022-12-11T17:40:09.226Z,15.83
2022-12-11T17:42:35.746Z,20.85
2022-12-11T17:45:02.411Z,18.08
2022-12-11T17:47:28.869Z,14.88
2022-12-11T17:49:55.461Z,15.43
2022-12-11T17:52:22.020Z,20.57
2022-12-11T17:54:48.502Z,16.52
2022-12-11T17:57:15.084Z,20.95
2022-12-11T17:59:41.680Z,18.73
2022-12-11T18:02:09.708Z,18.10
2022-12-11T18:04:38.399Z,32.63
2022-12-11T18:07:05.871Z,21.88
2022-12-11T18:09:33.075Z,26.23
2022-12-11T18:11:59.527Z,22.75
2022-12-11T18:14:26.115Z,18.83
2022-12-11T18:16:52.702Z,20.50
2022-12-11T18:19:19.220Z,22.15
2022-12-11T18:21:46.387Z,16.02
2022-12-11T18:24:12.887Z,31.15
2022-12-11T18:26:39.430Z,19.60
2022-12-11T18:29:06.756Z,21.63
2022-12-11T18:31:36.302Z,19.58
2022-12-11T18:34:05.609Z,19.42
2022-12-11T18:36:33.510Z,19.40
2022-12-11T18:39:00.323Z,20.05
2022-12-11T18:41:26.820Z,20.87
2022-12-11T18:43:54.946Z,18.52
2022-12-11T18:46:21.655Z,19.98
2022-12-11T18:48:48.786Z,13.23
2022-12-11T18:51:18.889Z,17.33
2022-12-11T18:53:45.907Z,20.07
2022-12-11T18:56:17.058Z,20.88
2022-12-11T18:58:44.515Z,18.35
2022-12-11T19:01:25.911Z,18.10
2022-12-11T19:04:02.038Z,17.60
2022-12-11T19:06:30.425Z,16.00
2022-12-11T19:09:00.171Z,18.35
2022-12-11T19:11:29.405Z,15.52
2022-12-11T19:13:56.688Z,16.00
2022-12-11T19:16:26.378Z,17.77
2022-12-11T19:18:53.001Z,15.40
2022-12-11T19:21:19.631Z,11.98
2022-12-11T19:23:46.460Z,14.50
2022-12-11T19:26:15.615Z,12.68
2022-12-11T19:28:42.390Z,15.55
2022-12-11T19:31:15.446Z,13.30
2022-12-11T19:33:43.021Z,14.23
2022-12-11T19:36:12.314Z,16.55
2022-12-11T19:38:40.711Z,14.15
2022-12-11T19:41:10.370Z,15.85
2022-12-11T19:43:37.023Z,16.83
2022-12-11T19:46:05.517Z,11.75
2022-12-11T19:48:32.651Z,14.05
2022-12-11T19:51:06.268Z,12.25
2022-12-11T19:53:33.630Z,14.73
2022-12-11T19:56:00.234Z,12.73
2022-12-11T19:58:28.082Z,13.88
2022-12-11T20:00:54.651Z,11.60
2022-12-11T20:03:21.381Z,12.13
2022-12-11T20:05:48.017Z,12.25
2022-12-11T20:08:43.105Z,16.00
2022-12-11T20:11:14.322Z,12.77
2022-12-11T20:13:44.020Z,17.77
2022-12-11T20:16:10.853Z,13.55
2022-12-11T20:18:37.802Z,14.82
2022-12-11T20:21:07.274Z,11.80
2022-12-11T20:23:34.599Z,11.80
2022-12-11T20:26:12.516Z,12.40
2022-12-11T20:28:39.836Z,11.35
2022-12-11T20:31:08.691Z,12.25
2022-12-11T20:33:35.270Z,13.03
2022-12-11T20:36:06.154Z,12.38
2022-12-11T20:38:34.660Z,13.35
2022-12-11T20:41:01.290Z,9.95
2022-12-11T20:43:28.226Z,11.23
2022-12-11T20:45:54.846Z,10.80
2022-12-11T20:48:21.425Z,10.48
2022-12-11T20:50:48.190Z,13.98
2022-12-11T20:53:14.815Z,10.32
2022-12-11T20:55:42.068Z,12.73
2022-12-11T20:58:09.433Z,10.70
2022-12-11T21:00:40.121Z,9.90
2022-12-11T21:03:06.698Z,12.48
2022-12-11T21:05:33.394Z,12.25
2022-12-11T21:07:59.979Z,12.57
2022-12-11T21:10:26.753Z,11.40
2022-12-11T21:12:53.570Z,11.32
2022-12-11T21:15:20.026Z,11.68
2022-12-11T21:17:46.564Z,11.10
2022-12-11T21:20:13.194Z,13.32
2022-12-11T21:22:39.746Z,13.13
2022-12-11T21:25:06.449Z,12.13
2022-12-11T21:27:33.205Z,9.27
2022-12-11T21:30:00.147Z,10.77
2022-12-11T21:32:26.683Z,11.00
2022-12-11T21:34:53.319Z,11.73
2022-12-11T21:37:19.857Z,9.77
2022-12-11T21:39:46.336Z,10.05
2022-12-11T21:42:12.923Z,9.80
2022-12-11T21:47:26.085Z,9.33
2022-12-11T21:49:53.359Z,9.63
2022-12-11T21:52:19.906Z,10.07
2022-12-11T21:54:46.459Z,9.43
2022-12-11T21:57:12.950Z,9.52
2022-12-11T21:59:39.555Z,6.73
2022-12-11T22:02:06.437Z,9.70
2022-12-11T22:04:33.120Z,9.27
2022-12-11T22:06:59.583Z,9.48
2022-12-11T22:09:26.302Z,10.43
2022-12-11T22:11:58.163Z,7.90
2022-12-11T22:14:25.609Z,9.38
2022-12-11T22:16:52.347Z,7.35
2022-12-11T22:19:18.817Z,9.07
2022-12-11T22:21:45.249Z,7.60
2022-12-11T22:24:11.908Z,9.97
2022-12-11T22:26:39.147Z,10.05
2022-12-11T22:29:05.744Z,9.82
2022-12-11T22:31:32.582Z,7.90
2022-12-11T22:33:59.250Z,9.73
2022-12-11T22:36:27.083Z,8.07
2022-12-11T22:38:54.291Z,10.00
2022-12-11T22:41:29.424Z,7.93
2022-12-11T22:43:58.100Z,8.55
2022-12-11T22:46:28.021Z,7.45
2022-12-11T22:48:55.161Z,11.33
2022-12-11T22:51:22.243Z,8.45
2022-12-11T22:53:48.802Z,9.75
2022-12-11T22:56:15.683Z,10.55
2022-12-11T22:58:42.531Z,9.07
2022-12-11T23:01:19.553Z,9.97
2022-12-11T23:03:46.473Z,9.52
2022-12-11T23:06:14.904Z,8.85
2022-12-11T23:08:42.082Z,10.35
2022-12-11T23:11:24.127Z,10.95
2022-12-11T23:13:51.158Z,10.17
2022-12-11T23:16:17.825Z,7.95
2022-12-11T23:18:44.679Z,11.68
2022-12-11T23:21:12.419Z,8.75
2022-12-11T23:23:39.252Z,8.20
2022-12-11T23:26:08.526Z,9.87
2022-12-11T23:28:35.067Z,8.75
2022-12-11T23:31:01.749Z,9.38
2022-12-11T23:33:28.422Z,8.50
2022-12-11T23:35:54.894Z,10.63
2022-12-11T23:38:21.400Z,9.83
2022-12-11T23:40:48.621Z,7.32
2022-12-11T23:43:15.098Z,8.00
2022-12-11T23:45:44.251Z,8.27
2022-12-11T23:48:12.102Z,10.95
2022-12-11T23:50:40.263Z,10.33
2022-12-11T23:53:06.835Z,9.40
2022-12-11T23:55:33.487Z,10.80
2022-12-11T23:57:59.939Z,10.82
